sensor_id;sensor_type;location;lat;lon;timestamp;P1;durP1;ratioP1;P2;durP2;ratioP2
14167;SDS011;7163;50.626;12.922;2022-07-29T00:01:15;7.83;;;2.83;;
14167;SDS011;7163;50.626;12.922;2022-07-29T00:06:17;8.03;;;2.90;;
14167;SDS011;7163;50.626;12.922;2022-07-29T00:11:17;4.80;;;2.90;;
14167;SDS011;7163;50.626;12.922;2022-07-29T00:16:18;4.57;;;2.70;;
14167;SDS011;7163;50.626;12.922;2022-07-29T00:21:18;3.80;;;2.30;;
14167;SDS011;7163;50.626;12.922;2022-07-29T00:26:19;5.27;;;2.77;;
14167;SDS011;7163;50.626;12.922;2022-07-29T00:31:19;5.60;;;2.67;;
14167;SDS011;7163;50.626;12.922;2022-07-29T00:36:20;4.57;;;2.50;;
14167;SDS011;7163;50.626;12.922;2022-07-29T00:41:23;4.83;;;2.60;;
14167;SDS011;7163;50.626;12.922;2022-07-29T00:46:23;4.40;;;2.57;;
14167;SDS011;7163;50.626;12.922;2022-07-29T00:51:24;4.77;;;2.27;;
14167;SDS011;7163;50.626;12.922;2022-07-29T00:56:25;4.03;;;2.70;;
14167;SDS011;7163;50.626;12.922;2022-07-29T01:01:26;3.07;;;2.20;;
14167;SDS011;7163;50.626;12.922;2022-07-29T01:06:27;4.90;;;2.87;;
14167;SDS011;7163;50.626;12.922;2022-07-29T01:11:28;5.00;;;2.70;;
14167;SDS011;7163;50.626;12.922;2022-07-29T01:16:30;4.43;;;2.60;;
14167;SDS011;7163;50.626;12.922;2022-07-29T01:32:24;3.50;;;2.50;;
14167;SDS011;7163;50.626;12.922;2022-07-29T01:37:38;7.37;;;2.80;;
14167;SDS011;7163;50.626;12.922;2022-07-29T01:42:43;7.23;;;2.60;;
14167;SDS011;7163;50.626;12.922;2022-07-29T01:47:56;7.17;;;2.53;;
14167;SDS011;7163;50.626;12.922;2022-07-29T01:53:01;4.00;;;2.70;;
14167;SDS011;7163;50.626;12.922;2022-07-29T01:58:03;7.20;;;2.70;;
14167;SDS011;7163;50.626;12.922;2022-07-29T02:03:06;6.57;;;2.60;;
14167;SDS011;7163;50.626;12.922;2022-07-29T02:08:09;6.20;;;2.80;;
14167;SDS011;7163;50.626;12.922;2022-07-29T02:13:11;5.00;;;2.47;;
14167;SDS011;7163;50.626;12.922;2022-07-29T02:18:15;5.50;;;3.03;;
14167;SDS011;7163;50.626;12.922;2022-07-29T02:23:20;4.10;;;2.40;;
14167;SDS011;7163;50.626;12.922;2022-07-29T02:28:22;6.73;;;3.03;;
14167;SDS011;7163;50.626;12.922;2022-07-29T02:33:25;4.73;;;2.80;;
14167;SDS011;7163;50.626;12.922;2022-07-29T02:38:26;6.10;;;2.90;;
14167;SDS011;7163;50.626;12.922;2022-07-29T02:43:47;5.27;;;2.80;;
14167;SDS011;7163;50.626;12.922;2022-07-29T02:48:51;2.97;;;2.27;;
14167;SDS011;7163;50.626;12.922;2022-07-29T02:53:56;3.23;;;2.50;;
14167;SDS011;7163;50.626;12.922;2022-07-29T02:58:58;3.80;;;2.60;;
14167;SDS011;7163;50.626;12.922;2022-07-29T03:04:00;4.73;;;2.90;;
14167;SDS011;7163;50.626;12.922;2022-07-29T03:09:02;4.03;;;2.57;;
14167;SDS011;7163;50.626;12.922;2022-07-29T03:14:02;8.70;;;2.73;;
14167;SDS011;7163;50.626;12.922;2022-07-29T03:19:03;4.23;;;2.70;;
14167;SDS011;7163;50.626;12.922;2022-07-29T03:24:03;4.57;;;2.60;;
14167;SDS011;7163;50.626;12.922;2022-07-29T03:29:04;5.30;;;2.93;;
14167;SDS011;7163;50.626;12.922;2022-07-29T03:34:05;5.13;;;3.17;;
14167;SDS011;7163;50.626;12.922;2022-07-29T03:39:05;6.60;;;3.10;;
14167;SDS011;7163;50.626;12.922;2022-07-29T03:44:07;6.40;;;3.30;;
14167;SDS011;7163;50.626;12.922;2022-07-29T03:49:07;5.90;;;3.37;;
14167;SDS011;7163;50.626;12.922;2022-07-29T03:54:08;4.63;;;3.20;;
14167;SDS011;7163;50.626;12.922;2022-07-29T03:59:09;5.80;;;3.17;;
14167;SDS011;7163;50.626;12.922;2022-07-29T04:04:10;5.30;;;2.90;;
14167;SDS011;7163;50.626;12.922;2022-07-29T04:09:11;5.70;;;3.80;;
14167;SDS011;7163;50.626;12.922;2022-07-29T04:14:12;7.17;;;3.67;;
14167;SDS011;7163;50.626;12.922;2022-07-29T04:19:13;5.90;;;3.07;;
14167;SDS011;7163;50.626;12.922;2022-07-29T04:24:13;5.50;;;3.17;;
14167;SDS011;7163;50.626;12.922;2022-07-29T04:29:13;4.43;;;2.87;;
14167;SDS011;7163;50.626;12.922;2022-07-29T04:34:14;7.90;;;4.10;;
14167;SDS011;7163;50.626;12.922;2022-07-29T04:39:15;5.00;;;2.97;;
14167;SDS011;7163;50.626;12.922;2022-07-29T04:44:18;9.80;;;4.10;;
14167;SDS011;7163;50.626;12.922;2022-07-29T04:49:18;5.73;;;3.20;;
14167;SDS011;7163;50.626;12.922;2022-07-29T04:54:18;6.13;;;3.37;;
14167;SDS011;7163;50.626;12.922;2022-07-29T04:59:19;5.87;;;3.30;;
14167;SDS011;7163;50.626;12.922;2022-07-29T05:04:19;5.30;;;3.10;;
14167;SDS011;7163;50.626;12.922;2022-07-29T05:09:20;4.13;;;2.73;;
14167;SDS011;7163;50.626;12.922;2022-07-29T05:14:20;4.23;;;2.77;;
14167;SDS011;7163;50.626;12.922;2022-07-29T05:19:20;6.03;;;3.20;;
14167;SDS011;7163;50.626;12.922;2022-07-29T05:24:21;7.70;;;3.47;;
14167;SDS011;7163;50.626;12.922;2022-07-29T05:29:21;9.07;;;3.27;;
14167;SDS011;7163;50.626;12.922;2022-07-29T05:34:22;6.40;;;2.83;;
14167;SDS011;7163;50.626;12.922;2022-07-29T05:39:22;7.37;;;2.87;;
14167;SDS011;7163;50.626;12.922;2022-07-29T05:44:23;6.70;;;3.47;;
14167;SDS011;7163;50.626;12.922;2022-07-29T05:49:23;7.47;;;3.80;;
14167;SDS011;7163;50.626;12.922;2022-07-29T05:54:24;7.53;;;2.97;;
14167;SDS011;7163;50.626;12.922;2022-07-29T05:59:24;6.30;;;2.87;;
14167;SDS011;7163;50.626;12.922;2022-07-29T06:04:25;8.03;;;2.90;;
14167;SDS011;7163;50.626;12.922;2022-07-29T06:09:25;9.90;;;3.27;;
14167;SDS011;7163;50.626;12.922;2022-07-29T06:14:26;7.07;;;3.00;;
14167;SDS011;7163;50.626;12.922;2022-07-29T06:19:26;10.63;;;2.97;;
14167;SDS011;7163;50.626;12.922;2022-07-29T06:24:27;10.53;;;3.10;;
14167;SDS011;7163;50.626;12.922;2022-07-29T06:29:27;5.13;;;3.10;;
14167;SDS011;7163;50.626;12.922;2022-07-29T06:34:27;5.60;;;4.00;;
14167;SDS011;7163;50.626;12.922;2022-07-29T06:39:28;7.90;;;4.60;;
14167;SDS011;7163;50.626;12.922;2022-07-29T06:44:28;6.80;;;3.20;;
14167;SDS011;7163;50.626;12.922;2022-07-29T06:49:29;6.03;;;3.10;;
14167;SDS011;7163;50.626;12.922;2022-07-29T06:54:30;5.38;;;3.25;;
14167;SDS011;7163;50.626;12.922;2022-07-29T06:59:30;6.43;;;2.80;;
14167;SDS011;7163;50.626;12.922;2022-07-29T07:04:32;7.65;;;3.17;;
14167;SDS011;7163;50.626;12.922;2022-07-29T07:09:33;7.88;;;3.08;;
14167;SDS011;7163;50.626;12.922;2022-07-29T07:14:33;5.72;;;3.00;;
14167;SDS011;7163;50.626;12.922;2022-07-29T07:19:34;5.20;;;2.90;;
14167;SDS011;7163;50.626;12.922;2022-07-29T07:24:34;4.57;;;2.80;;
14167;SDS011;7163;50.626;12.922;2022-07-29T07:29:34;8.80;;;3.55;;
14167;SDS011;7163;50.626;12.922;2022-07-29T07:34:35;7.90;;;2.97;;
14167;SDS011;7163;50.626;12.922;2022-07-29T07:39:37;6.70;;;3.30;;
14167;SDS011;7163;50.626;12.922;2022-07-29T07:44:38;7.30;;;2.90;;
14167;SDS011;7163;50.626;12.922;2022-07-29T07:49:39;8.73;;;3.28;;
14167;SDS011;7163;50.626;12.922;2022-07-29T07:54:40;7.90;;;2.90;;
14167;SDS011;7163;50.626;12.922;2022-07-29T07:59:42;9.50;;;3.70;;
14167;SDS011;7163;50.626;12.922;2022-07-29T08:04:42;5.25;;;2.97;;
14167;SDS011;7163;50.626;12.922;2022-07-29T08:09:43;4.57;;;2.95;;
14167;SDS011;7163;50.626;12.922;2022-07-29T08:14:43;8.60;;;3.00;;
14167;SDS011;7163;50.626;12.922;2022-07-29T08:19:44;7.43;;;3.25;;
14167;SDS011;7163;50.626;12.922;2022-07-29T08:24:44;10.07;;;2.97;;
14167;SDS011;7163;50.626;12.922;2022-07-29T08:29:52;6.68;;;3.25;;
14167;SDS011;7163;50.626;12.922;2022-07-29T08:34:52;9.77;;;3.50;;
14167;SDS011;7163;50.626;12.922;2022-07-29T08:39:53;7.50;;;2.90;;
14167;SDS011;7163;50.626;12.922;2022-07-29T08:44:53;4.32;;;2.97;;
14167;SDS011;7163;50.626;12.922;2022-07-29T08:49:54;7.72;;;2.70;;
14167;SDS011;7163;50.626;12.922;2022-07-29T08:54:54;5.33;;;2.70;;
14167;SDS011;7163;50.626;12.922;2022-07-29T08:59:55;4.68;;;2.60;;
14167;SDS011;7163;50.626;12.922;2022-07-29T09:04:57;4.97;;;3.53;;
14167;SDS011;7163;50.626;12.922;2022-07-29T09:10:00;5.88;;;3.20;;
14167;SDS011;7163;50.626;12.922;2022-07-29T09:15:01;8.00;;;2.83;;
14167;SDS011;7163;50.626;12.922;2022-07-29T09:20:08;3.75;;;2.50;;
14167;SDS011;7163;50.626;12.922;2022-07-29T09:25:13;6.90;;;2.88;;
14167;SDS011;7163;50.626;12.922;2022-07-29T09:30:13;5.47;;;3.00;;
14167;SDS011;7163;50.626;12.922;2022-07-29T09:35:18;8.25;;;3.30;;
14167;SDS011;7163;50.626;12.922;2022-07-29T09:40:21;3.83;;;2.47;;
14167;SDS011;7163;50.626;12.922;2022-07-29T09:45:29;5.07;;;2.90;;
14167;SDS011;7163;50.626;12.922;2022-07-29T09:50:35;8.05;;;2.75;;
14167;SDS011;7163;50.626;12.922;2022-07-29T09:55:51;4.82;;;2.80;;
14167;SDS011;7163;50.626;12.922;2022-07-29T10:00:52;4.63;;;2.45;;
14167;SDS011;7163;50.626;12.922;2022-07-29T10:06:06;5.43;;;2.80;;
14167;SDS011;7163;50.626;12.922;2022-07-29T10:11:09;6.95;;;3.05;;
14167;SDS011;7163;50.626;12.922;2022-07-29T10:16:11;4.25;;;2.25;;
14167;SDS011;7163;50.626;12.922;2022-07-29T10:21:12;6.65;;;2.90;;
14167;SDS011;7163;50.626;12.922;2022-07-29T10:26:13;4.55;;;2.80;;
14167;SDS011;7163;50.626;12.922;2022-07-29T10:31:20;4.85;;;2.50;;
14167;SDS011;7163;50.626;12.922;2022-07-29T10:41:54;7.20;;;2.55;;
14167;SDS011;7163;50.626;12.922;2022-07-29T10:47:00;3.70;;;2.30;;
14167;SDS011;7163;50.626;12.922;2022-07-29T10:57:11;3.90;;;2.67;;
14167;SDS011;7163;50.626;12.922;2022-07-29T11:07:31;8.80;;;2.65;;
14167;SDS011;7163;50.626;12.922;2022-07-29T11:22:56;3.25;;;2.30;;
14167;SDS011;7163;50.626;12.922;2022-07-29T11:28:08;3.50;;;2.38;;
14167;SDS011;7163;50.626;12.922;2022-07-29T11:33:26;5.82;;;2.55;;
14167;SDS011;7163;50.626;12.922;2022-07-29T11:38:35;5.70;;;2.22;;
14167;SDS011;7163;50.626;12.922;2022-07-29T11:43:52;4.22;;;2.50;;
14167;SDS011;7163;50.626;12.922;2022-07-29T11:48:53;6.15;;;2.80;;
14167;SDS011;7163;50.626;12.922;2022-07-29T11:53:54;4.88;;;2.75;;
14167;SDS011;7163;50.626;12.922;2022-07-29T11:59:03;7.45;;;2.55;;
14167;SDS011;7163;50.626;12.922;2022-07-29T12:04:04;8.70;;;3.08;;
14167;SDS011;7163;50.626;12.922;2022-07-29T12:09:07;5.85;;;2.78;;
14167;SDS011;7163;50.626;12.922;2022-07-29T12:14:08;5.43;;;2.75;;
14167;SDS011;7163;50.626;12.922;2022-07-29T12:19:08;12.07;;;3.40;;
14167;SDS011;7163;50.626;12.922;2022-07-29T12:24:09;7.45;;;2.78;;
14167;SDS011;7163;50.626;12.922;2022-07-29T12:29:14;8.63;;;3.20;;
14167;SDS011;7163;50.626;12.922;2022-07-29T12:34:15;7.28;;;3.08;;
14167;SDS011;7163;50.626;12.922;2022-07-29T12:39:16;6.05;;;3.08;;
14167;SDS011;7163;50.626;12.922;2022-07-29T12:44:17;6.43;;;2.72;;
14167;SDS011;7163;50.626;12.922;2022-07-29T12:49:21;5.00;;;3.10;;
14167;SDS011;7163;50.626;12.922;2022-07-29T12:54:22;6.43;;;2.67;;
14167;SDS011;7163;50.626;12.922;2022-07-29T12:59:23;6.70;;;3.05;;
14167;SDS011;7163;50.626;12.922;2022-07-29T13:04:27;6.93;;;3.03;;
14167;SDS011;7163;50.626;12.922;2022-07-29T13:09:42;5.18;;;3.10;;
14167;SDS011;7163;50.626;12.922;2022-07-29T13:14:47;7.45;;;2.85;;
14167;SDS011;7163;50.626;12.922;2022-07-29T13:19:52;7.15;;;2.70;;
14167;SDS011;7163;50.626;12.922;2022-07-29T13:25:04;6.60;;;2.90;;
14167;SDS011;7163;50.626;12.922;2022-07-29T13:30:07;4.53;;;2.47;;
14167;SDS011;7163;50.626;12.922;2022-07-29T13:35:09;5.97;;;2.70;;
14167;SDS011;7163;50.626;12.922;2022-07-29T13:40:10;6.38;;;3.05;;
14167;SDS011;7163;50.626;12.922;2022-07-29T13:45:11;4.72;;;3.38;;
14167;SDS011;7163;50.626;12.922;2022-07-29T13:50:11;7.55;;;2.92;;
14167;SDS011;7163;50.626;12.922;2022-07-29T13:55:12;7.68;;;3.03;;
14167;SDS011;7163;50.626;12.922;2022-07-29T14:00:12;12.00;;;3.47;;
14167;SDS011;7163;50.626;12.922;2022-07-29T14:05:13;5.95;;;3.28;;
14167;SDS011;7163;50.626;12.922;2022-07-29T14:10:14;11.55;;;3.22;;
14167;SDS011;7163;50.626;12.922;2022-07-29T14:15:14;6.50;;;2.70;;
14167;SDS011;7163;50.626;12.922;2022-07-29T14:20:14;6.63;;;3.07;;
14167;SDS011;7163;50.626;12.922;2022-07-29T14:25:15;7.93;;;3.00;;
14167;SDS011;7163;50.626;12.922;2022-07-29T14:30:16;8.88;;;3.08;;
14167;SDS011;7163;50.626;12.922;2022-07-29T14:35:16;11.77;;;3.33;;
14167;SDS011;7163;50.626;12.922;2022-07-29T14:40:16;6.75;;;3.20;;
14167;SDS011;7163;50.626;12.922;2022-07-29T14:45:17;7.85;;;3.40;;
14167;SDS011;7163;50.626;12.922;2022-07-29T14:50:17;6.63;;;3.00;;
14167;SDS011;7163;50.626;12.922;2022-07-29T14:55:19;3.42;;;2.95;;
14167;SDS011;7163;50.626;12.922;2022-07-29T15:00:19;6.38;;;2.90;;
14167;SDS011;7163;50.626;12.922;2022-07-29T15:05:22;5.03;;;2.92;;
14167;SDS011;7163;50.626;12.922;2022-07-29T15:10:23;4.38;;;3.35;;
14167;SDS011;7163;50.626;12.922;2022-07-29T15:15:23;5.40;;;3.45;;
14167;SDS011;7163;50.626;12.922;2022-07-29T15:20:24;6.38;;;3.60;;
14167;SDS011;7163;50.626;12.922;2022-07-29T15:25:25;5.85;;;3.85;;
14167;SDS011;7163;50.626;12.922;2022-07-29T15:30:26;6.18;;;3.75;;
14167;SDS011;7163;50.626;12.922;2022-07-29T15:35:27;7.38;;;3.70;;
14167;SDS011;7163;50.626;12.922;2022-07-29T15:40:28;4.97;;;3.58;;
14167;SDS011;7163;50.626;12.922;2022-07-29T15:45:29;4.43;;;3.40;;
14167;SDS011;7163;50.626;12.922;2022-07-29T15:50:29;6.32;;;3.70;;
14167;SDS011;7163;50.626;12.922;2022-07-29T15:55:30;4.97;;;3.58;;
14167;SDS011;7163;50.626;12.922;2022-07-29T16:00:30;5.47;;;3.53;;
14167;SDS011;7163;50.626;12.922;2022-07-29T16:05:30;4.03;;;3.20;;
14167;SDS011;7163;50.626;12.922;2022-07-29T16:10:31;4.85;;;2.95;;
14167;SDS011;7163;50.626;12.922;2022-07-29T16:15:33;3.85;;;3.20;;
14167;SDS011;7163;50.626;12.922;2022-07-29T16:20:33;5.68;;;3.03;;
14167;SDS011;7163;50.626;12.922;2022-07-29T16:25:34;5.05;;;3.25;;
14167;SDS011;7163;50.626;12.922;2022-07-29T16:30:35;5.15;;;3.50;;
14167;SDS011;7163;50.626;12.922;2022-07-29T16:35:35;4.35;;;3.20;;
14167;SDS011;7163;50.626;12.922;2022-07-29T16:40:39;4.28;;;3.38;;
14167;SDS011;7163;50.626;12.922;2022-07-29T16:45:39;6.68;;;3.80;;
14167;SDS011;7163;50.626;12.922;2022-07-29T16:50:40;5.20;;;3.90;;
14167;SDS011;7163;50.626;12.922;2022-07-29T16:55:41;5.20;;;3.67;;
14167;SDS011;7163;50.626;12.922;2022-07-29T17:00:44;4.18;;;3.42;;
14167;SDS011;7163;50.626;12.922;2022-07-29T17:05:45;7.78;;;3.60;;
14167;SDS011;7163;50.626;12.922;2022-07-29T17:10:46;7.72;;;3.95;;
14167;SDS011;7163;50.626;12.922;2022-07-29T17:15:46;6.13;;;3.70;;
14167;SDS011;7163;50.626;12.922;2022-07-29T17:20:46;6.45;;;3.65;;
14167;SDS011;7163;50.626;12.922;2022-07-29T17:25:47;5.15;;;3.63;;
14167;SDS011;7163;50.626;12.922;2022-07-29T17:30:47;4.45;;;3.42;;
14167;SDS011;7163;50.626;12.922;2022-07-29T17:35:48;5.32;;;3.80;;
14167;SDS011;7163;50.626;12.922;2022-07-29T17:41:07;9.45;;;4.40;;
14167;SDS011;7163;50.626;12.922;2022-07-29T17:46:07;7.70;;;3.85;;
14167;SDS011;7163;50.626;12.922;2022-07-29T17:51:08;4.57;;;3.70;;
14167;SDS011;7163;50.626;12.922;2022-07-29T17:56:08;6.22;;;4.10;;
14167;SDS011;7163;50.626;12.922;2022-07-29T18:01:09;6.53;;;4.07;;
14167;SDS011;7163;50.626;12.922;2022-07-29T18:06:09;5.18;;;4.18;;
14167;SDS011;7163;50.626;12.922;2022-07-29T18:11:10;9.15;;;4.70;;
14167;SDS011;7163;50.626;12.922;2022-07-29T18:16:10;5.18;;;4.18;;
14167;SDS011;7163;50.626;12.922;2022-07-29T18:21:11;6.45;;;4.15;;
14167;SDS011;7163;50.626;12.922;2022-07-29T18:26:11;5.32;;;4.20;;
14167;SDS011;7163;50.626;12.922;2022-07-29T18:31:12;5.20;;;4.47;;
14167;SDS011;7163;50.626;12.922;2022-07-29T18:36:12;9.67;;;4.63;;
14167;SDS011;7163;50.626;12.922;2022-07-29T18:41:12;6.33;;;4.80;;
14167;SDS011;7163;50.626;12.922;2022-07-29T18:46:13;10.03;;;5.77;;
14167;SDS011;7163;50.626;12.922;2022-07-29T18:51:13;8.70;;;5.53;;
14167;SDS011;7163;50.626;12.922;2022-07-29T18:56:14;7.63;;;5.40;;
14167;SDS011;7163;50.626;12.922;2022-07-29T19:01:14;8.07;;;5.33;;
14167;SDS011;7163;50.626;12.922;2022-07-29T19:06:15;8.40;;;5.27;;
14167;SDS011;7163;50.626;12.922;2022-07-29T19:11:15;8.13;;;4.90;;
14167;SDS011;7163;50.626;12.922;2022-07-29T19:16:15;7.37;;;5.20;;
14167;SDS011;7163;50.626;12.922;2022-07-29T19:21:17;7.20;;;5.73;;
14167;SDS011;7163;50.626;12.922;2022-07-29T19:26:18;8.60;;;5.80;;
14167;SDS011;7163;50.626;12.922;2022-07-29T19:31:19;11.73;;;6.27;;
14167;SDS011;7163;50.626;12.922;2022-07-29T19:36:19;8.00;;;5.63;;
14167;SDS011;7163;50.626;12.922;2022-07-29T19:41:20;6.80;;;5.10;;
14167;SDS011;7163;50.626;12.922;2022-07-29T19:46:20;7.97;;;5.37;;
14167;SDS011;7163;50.626;12.922;2022-07-29T19:51:21;6.67;;;5.47;;
14167;SDS011;7163;50.626;12.922;2022-07-29T19:56:22;9.23;;;5.80;;
14167;SDS011;7163;50.626;12.922;2022-07-29T20:01:25;9.93;;;5.73;;
14167;SDS011;7163;50.626;12.922;2022-07-29T20:06:26;7.60;;;5.70;;
14167;SDS011;7163;50.626;12.922;2022-07-29T20:11:26;8.17;;;5.50;;
14167;SDS011;7163;50.626;12.922;2022-07-29T20:16:28;6.60;;;5.07;;
14167;SDS011;7163;50.626;12.922;2022-07-29T20:21:29;6.30;;;5.10;;
14167;SDS011;7163;50.626;12.922;2022-07-29T20:26:30;6.87;;;5.37;;
14167;SDS011;7163;50.626;12.922;2022-07-29T20:31:31;9.30;;;5.80;;
14167;SDS011;7163;50.626;12.922;2022-07-29T20:36:31;9.33;;;6.00;;
14167;SDS011;7163;50.626;12.922;2022-07-29T20:41:32;6.50;;;5.43;;
14167;SDS011;7163;50.626;12.922;2022-07-29T20:46:32;8.07;;;5.97;;
14167;SDS011;7163;50.626;12.922;2022-07-29T20:51:33;7.93;;;6.40;;
14167;SDS011;7163;50.626;12.922;2022-07-29T20:56:33;8.13;;;5.90;;
14167;SDS011;7163;50.626;12.922;2022-07-29T21:01:34;6.63;;;4.93;;
14167;SDS011;7163;50.626;12.922;2022-07-29T21:06:36;6.23;;;5.17;;
14167;SDS011;7163;50.626;12.922;2022-07-29T21:11:37;9.97;;;5.60;;
14167;SDS011;7163;50.626;12.922;2022-07-29T21:16:37;9.70;;;5.37;;
14167;SDS011;7163;50.626;12.922;2022-07-29T21:21:37;6.13;;;4.80;;
14167;SDS011;7163;50.626;12.922;2022-07-29T21:26:38;7.57;;;4.80;;
14167;SDS011;7163;50.626;12.922;2022-07-29T21:31:38;8.00;;;5.63;;
14167;SDS011;7163;50.626;12.922;2022-07-29T21:36:41;8.73;;;5.17;;
14167;SDS011;7163;50.626;12.922;2022-07-29T21:41:41;6.60;;;5.20;;
14167;SDS011;7163;50.626;12.922;2022-07-29T21:46:42;7.63;;;6.10;;
14167;SDS011;7163;50.626;12.922;2022-07-29T21:51:42;5.90;;;4.60;;
14167;SDS011;7163;50.626;12.922;2022-07-29T21:56:43;6.13;;;4.80;;
14167;SDS011;7163;50.626;12.922;2022-07-29T22:01:43;6.83;;;4.63;;
14167;SDS011;7163;50.626;12.922;2022-07-29T22:06:44;8.53;;;4.50;;
14167;SDS011;7163;50.626;12.922;2022-07-29T22:11:44;7.50;;;4.17;;
14167;SDS011;7163;50.626;12.922;2022-07-29T22:16:45;5.03;;;4.00;;
14167;SDS011;7163;50.626;12.922;2022-07-29T22:21:46;5.30;;;3.90;;
14167;SDS011;7163;50.626;12.922;2022-07-29T22:26:47;4.33;;;3.80;;
14167;SDS011;7163;50.626;12.922;2022-07-29T22:31:47;6.17;;;4.03;;
14167;SDS011;7163;50.626;12.922;2022-07-29T22:36:48;4.93;;;4.03;;
14167;SDS011;7163;50.626;12.922;2022-07-29T22:41:48;5.77;;;4.07;;
14167;SDS011;7163;50.626;12.922;2022-07-29T22:46:49;5.33;;;3.80;;
14167;SDS011;7163;50.626;12.922;2022-07-29T22:51:49;6.63;;;4.60;;
14167;SDS011;7163;50.626;12.922;2022-07-29T22:56:49;7.13;;;4.60;;
14167;SDS011;7163;50.626;12.922;2022-07-29T23:01:50;5.67;;;4.47;;
14167;SDS011;7163;50.626;12.922;2022-07-29T23:06:52;6.13;;;4.97;;
14167;SDS011;7163;50.626;12.922;2022-07-29T23:11:53;9.17;;;6.40;;
14167;SDS011;7163;50.626;12.922;2022-07-29T23:16:53;10.13;;;7.07;;
14167;SDS011;7163;50.626;12.922;2022-07-29T23:21:53;10.87;;;7.80;;
14167;SDS011;7163;50.626;12.922;2022-07-29T23:26:54;12.63;;;9.17;;
14167;SDS011;7163;50.626;12.922;2022-07-29T23:31:54;11.93;;;9.27;;
14167;SDS011;7163;50.626;12.922;2022-07-29T23:36:55;15.03;;;10.20;;
14167;SDS011;7163;50.626;12.922;2022-07-29T23:41:56;15.67;;;11.07;;
14167;SDS011;7163;50.626;12.922;2022-07-29T23:46:56;16.27;;;11.87;;
14167;SDS011;7163;50.626;12.922;2022-07-29T23:51:56;15.03;;;11.77;;
14167;SDS011;7163;50.626;12.922;2022-07-29T23:56:57;15.63;;;12.10;;
